createdAt,value
2018-06-03T00:01:00.168Z,19.70
2018-06-03T00:03:29.341Z,19.70
2018-06-03T00:06:03.806Z,19.90
2018-06-03T00:08:32.980Z,19.70
2018-06-03T00:11:02.144Z,19.60
2018-06-03T00:13:31.363Z,19.70
2018-06-03T00:16:00.535Z,19.70
2018-06-03T00:18:29.713Z,19.50
2018-06-03T00:21:16.521Z,19.60
2018-06-03T00:23:45.674Z,19.60
2018-06-03T00:29:14.951Z,19.40
2018-06-03T00:31:44.123Z,19.40
2018-06-03T00:34:13.293Z,19.50
2018-06-03T00:41:40.538Z,19.50
2018-06-03T00:44:09.797Z,19.40
2018-06-03T00:46:38.958Z,19.30
2018-06-03T00:49:08.134Z,19.30
2018-06-03T00:51:37.326Z,19.30
2018-06-03T00:54:06.496Z,19.20
2018-06-03T00:56:52.999Z,19.30
2018-06-03T00:59:22.226Z,19.40
2018-06-03T01:02:03.541Z,19.30
2018-06-03T01:05:01.929Z,19.30
2018-06-03T01:10:31.054Z,19.20
2018-06-03T01:16:16.552Z,19.20
2018-06-03T01:19:04.835Z,19.20
2018-06-03T01:21:34.027Z,19.20
2018-06-03T01:24:03.210Z,19.20
2018-06-03T01:27:01.402Z,19.10
2018-06-03T01:35:30.206Z,19.00
2018-06-03T01:37:59.359Z,19.00
2018-06-03T01:40:28.543Z,19.00
2018-06-03T01:43:04.354Z,18.90
2018-06-03T01:48:02.608Z,18.90
2018-06-03T01:50:31.845Z,18.90
2018-06-03T01:53:01.027Z,19.00
2018-06-03T01:55:30.207Z,18.90
2018-06-03T01:58:05.208Z,19.00
2018-06-03T02:00:34.467Z,18.80
2018-06-03T02:03:03.635Z,18.90
2018-06-03T02:05:32.855Z,18.90
2018-06-03T02:08:02.013Z,19.10
2018-06-03T02:13:31.847Z,19.10
2018-06-03T02:16:01.006Z,19.10
2018-06-03T02:18:30.250Z,18.80
2018-06-03T02:20:59.450Z,18.80
2018-06-03T02:23:28.626Z,18.80
2018-06-03T02:26:04.139Z,18.80
2018-06-03T02:28:33.364Z,18.60
2018-06-03T02:31:02.537Z,18.60
2018-06-03T02:33:31.827Z,18.60
2018-06-03T02:36:01.005Z,18.80
2018-06-03T02:38:30.257Z,18.70
2018-06-03T02:40:59.463Z,18.60
2018-06-03T02:43:29.039Z,18.60
2018-06-03T02:45:58.222Z,18.60
2018-06-03T02:48:27.410Z,18.70
2018-06-03T02:50:56.672Z,18.80
2018-06-03T02:53:25.851Z,18.80
2018-06-03T02:55:55.291Z,18.50
2018-06-03T02:58:24.433Z,18.60
2018-06-03T03:00:53.592Z,18.40
2018-06-03T03:03:22.787Z,18.40
2018-06-03T03:05:51.959Z,18.50
2018-06-03T03:08:21.118Z,18.50
2018-06-03T03:10:50.438Z,18.30
2018-06-03T03:13:19.659Z,18.30
2018-06-03T03:15:48.859Z,18.40
2018-06-03T03:18:18.077Z,18.40
2018-06-03T03:21:10.597Z,18.30
2018-06-03T03:23:39.788Z,18.30
2018-06-03T03:26:08.990Z,18.30
2018-06-03T03:28:38.169Z,18.40
2018-06-03T03:31:07.365Z,18.30
2018-06-03T03:34:01.789Z,18.30
2018-06-03T03:36:30.990Z,18.30
2018-06-03T03:39:04.531Z,18.50
2018-06-03T03:41:33.713Z,18.50
2018-06-03T03:44:03.267Z,18.40
2018-06-03T03:46:32.445Z,18.40
2018-06-03T03:49:04.753Z,18.40
2018-06-03T03:51:33.918Z,18.40
2018-06-03T03:54:03.117Z,18.50
2018-06-03T03:56:32.302Z,18.40
2018-06-03T03:59:01.526Z,18.40
2018-06-03T04:01:30.693Z,18.50
2018-06-03T04:04:06.045Z,18.50
2018-06-03T04:07:01.004Z,18.70
2018-06-03T04:09:30.290Z,18.50
2018-06-03T04:11:59.496Z,18.50
2018-06-03T04:14:28.674Z,18.60
2018-06-03T04:16:57.873Z,18.50
2018-06-03T04:19:27.034Z,18.60
2018-06-03T04:21:56.186Z,18.50
2018-06-03T04:24:25.428Z,18.50
2018-06-03T04:26:54.582Z,18.70
2018-06-03T04:29:23.823Z,18.60
2018-06-03T04:32:05.337Z,18.70
2018-06-03T04:34:34.503Z,18.70
2018-06-03T04:37:03.681Z,18.70
2018-06-03T04:39:32.874Z,18.80
2018-06-03T04:42:02.046Z,18.90
2018-06-03T04:44:31.614Z,18.90
2018-06-03T04:47:00.838Z,18.90
2018-06-03T04:49:30.178Z,19.00
2018-06-03T04:51:59.379Z,19.00
2018-06-03T04:54:28.559Z,19.10
2018-06-03T04:57:04.157Z,19.10
2018-06-03T04:59:33.444Z,19.00
2018-06-03T05:02:02.664Z,19.00
2018-06-03T05:04:31.895Z,19.00
2018-06-03T05:09:30.047Z,19.10
2018-06-03T05:11:59.267Z,19.10
2018-06-03T05:20:29.413Z,19.00
2018-06-03T05:22:58.691Z,19.10
2018-06-03T05:25:27.870Z,19.10
2018-06-03T05:27:57.184Z,19.20
2018-06-03T05:30:26.338Z,19.10
2018-06-03T05:32:55.520Z,19.10
2018-06-03T05:35:24.743Z,19.10
2018-06-03T05:37:53.909Z,19.20
2018-06-03T05:40:23.147Z,19.20
2018-06-03T05:43:04.343Z,19.30
2018-06-03T05:45:33.553Z,19.30
2018-06-03T05:48:02.717Z,19.30
2018-06-03T05:50:31.915Z,19.30
2018-06-03T05:53:04.234Z,19.40
2018-06-03T05:55:33.450Z,19.30
2018-06-03T05:58:02.634Z,19.40
2018-06-03T06:00:31.820Z,19.40
2018-06-03T06:03:01.157Z,19.40
2018-06-03T06:05:30.343Z,19.40
2018-06-03T06:07:59.599Z,19.50
2018-06-03T06:10:28.836Z,19.50
2018-06-03T06:13:04.261Z,19.60
2018-06-03T06:15:33.467Z,19.70
2018-06-03T06:18:02.656Z,19.80
2018-06-03T06:23:32.237Z,19.70
2018-06-03T06:26:01.418Z,19.70
2018-06-03T06:28:30.760Z,19.70
2018-06-03T06:31:00.016Z,19.90
2018-06-03T06:33:29.296Z,19.80
2018-06-03T06:35:58.487Z,19.90
2018-06-03T06:43:57.143Z,20.10
2018-06-03T06:46:26.430Z,20.20
2018-06-03T06:49:04.064Z,20.10
2018-06-03T06:51:33.318Z,20.20
2018-06-03T06:54:02.527Z,20.20
2018-06-03T06:56:31.699Z,20.30
2018-06-03T06:59:00.917Z,20.30
2018-06-03T07:01:30.213Z,20.30
2018-06-03T07:03:59.447Z,20.20
2018-06-03T07:09:29.356Z,20.40
2018-06-03T07:11:58.558Z,20.40
2018-06-03T07:14:27.740Z,20.50
2018-06-03T07:21:55.554Z,20.70
2018-06-03T07:24:24.723Z,20.60
2018-06-03T07:26:53.913Z,20.60
2018-06-03T07:29:23.195Z,20.70
2018-06-03T07:31:52.387Z,20.70
2018-06-03T07:34:21.551Z,20.70
2018-06-03T07:37:03.518Z,20.80
2018-06-03T07:39:32.688Z,20.80
2018-06-03T07:42:01.960Z,20.90
2018-06-03T07:44:31.156Z,21.00
2018-06-03T07:47:00.371Z,21.00
2018-06-03T07:49:29.590Z,21.10
2018-06-03T07:51:58.778Z,21.10
2018-06-03T07:54:27.946Z,21.10
2018-06-03T07:56:57.126Z,21.10
2018-06-03T08:08:27.847Z,21.50
2018-06-03T08:11:04.059Z,21.40
2018-06-03T08:14:02.079Z,21.60
2018-06-03T08:20:01.484Z,21.90
2018-06-03T08:22:30.702Z,21.90
2018-06-03T08:25:06.098Z,22.00
2018-06-03T08:28:02.077Z,22.10
2018-06-03T08:33:31.289Z,22.00
2018-06-03T08:36:00.455Z,22.10
2018-06-03T08:38:29.629Z,22.00
2018-06-03T08:40:58.876Z,22.10
2018-06-03T08:43:28.035Z,22.00
2018-06-03T08:45:57.224Z,22.10
2018-06-03T08:48:26.428Z,22.10
2018-06-03T08:50:55.598Z,22.30
2018-06-03T08:53:24.794Z,22.20
2018-06-03T08:56:04.493Z,22.30
2018-06-03T08:58:33.670Z,22.40
2018-06-03T09:01:02.873Z,22.30
2018-06-03T09:03:32.112Z,22.20
2018-06-03T09:06:01.320Z,22.40
2018-06-03T09:08:30.499Z,22.40
2018-06-03T09:10:59.668Z,22.50
2018-06-03T09:13:37.536Z,22.40
2018-06-03T09:16:06.746Z,22.60
2018-06-03T09:18:35.897Z,22.80
2018-06-03T09:21:05.075Z,22.60
2018-06-03T09:23:34.318Z,22.70
2018-06-03T09:26:03.528Z,22.60
2018-06-03T09:28:32.821Z,22.70
2018-06-03T09:31:06.963Z,22.70
2018-06-03T09:33:36.972Z,22.70
2018-06-03T09:36:06.144Z,22.60
2018-06-03T09:38:35.443Z,22.80
2018-06-03T09:41:04.642Z,22.90
2018-06-03T09:43:33.815Z,23.10
2018-06-03T09:46:03.093Z,22.70
2018-06-03T09:48:32.317Z,22.80
2018-06-03T09:51:01.543Z,23.00
2018-06-03T09:53:30.719Z,23.00
2018-06-03T09:56:05.578Z,23.10
2018-06-03T09:58:34.737Z,23.20
2018-06-03T10:01:04.729Z,23.40
2018-06-03T10:03:34.009Z,22.90
2018-06-03T10:06:03.191Z,23.00
2018-06-03T10:09:01.783Z,23.20
2018-06-03T10:11:31.018Z,23.00
2018-06-03T10:14:00.227Z,23.10
2018-06-03T10:16:29.391Z,22.90
2018-06-03T10:18:58.642Z,23.10
2018-06-03T10:21:27.850Z,23.10
2018-06-03T10:23:57.043Z,23.10
2018-06-03T10:26:26.211Z,23.10
2018-06-03T10:28:55.385Z,23.20
2018-06-03T10:31:28.653Z,23.30
2018-06-03T10:33:57.826Z,23.30
2018-06-03T10:39:27.579Z,23.30
2018-06-03T10:41:56.797Z,23.50
2018-06-03T10:44:26.057Z,23.30
2018-06-03T10:46:55.205Z,23.30
2018-06-03T10:49:24.425Z,23.30
2018-06-03T10:51:53.595Z,23.50
2018-06-03T10:54:22.883Z,23.30
2018-06-03T10:56:52.055Z,23.30
2018-06-03T10:59:21.236Z,23.50
2018-06-03T11:01:50.454Z,23.40
2018-06-03T11:04:19.654Z,23.50
2018-06-03T11:06:48.832Z,23.30
2018-06-03T11:09:18.051Z,23.40
2018-06-03T11:11:47.225Z,23.40
2018-06-03T11:14:16.443Z,23.50
2018-06-03T11:16:45.625Z,23.60
2018-06-03T11:19:14.875Z,23.50
2018-06-03T11:21:44.046Z,23.30
2018-06-03T11:24:13.267Z,23.30
2018-06-03T11:26:42.435Z,23.40
2018-06-03T11:29:11.685Z,23.60
2018-06-03T11:31:40.850Z,23.70
2018-06-03T11:34:10.083Z,23.60
2018-06-03T11:39:39.567Z,23.50
2018-06-03T11:42:08.734Z,23.70
2018-06-03T11:47:23.295Z,23.70
2018-06-03T11:49:52.459Z,23.60
2018-06-03T11:52:21.659Z,23.50
2018-06-03T11:54:50.868Z,23.40
2018-06-03T11:57:20.063Z,23.60
2018-06-03T12:00:03.265Z,23.30
2018-06-03T12:02:32.440Z,23.50
2018-06-03T12:05:01.656Z,23.50
2018-06-03T12:07:30.830Z,23.60
2018-06-03T12:10:00.058Z,23.70
2018-06-03T12:12:29.232Z,23.50
2018-06-03T12:14:58.422Z,23.40
2018-06-03T12:17:27.581Z,23.30
2018-06-03T12:19:56.795Z,23.30
2018-06-03T12:22:26.028Z,23.20
2018-06-03T12:24:55.246Z,23.30
2018-06-03T12:30:24.554Z,23.20
2018-06-03T12:32:53.719Z,23.20
2018-06-03T12:36:10.515Z,23.20
2018-06-03T12:39:11.040Z,23.30
2018-06-03T12:42:02.858Z,23.50
2018-06-03T12:44:32.093Z,23.60
2018-06-03T12:47:05.167Z,23.20
2018-06-03T12:50:01.792Z,23.30
2018-06-03T12:52:30.966Z,23.50
2018-06-03T12:55:06.599Z,23.50
2018-06-03T12:58:01.344Z,23.50
2018-06-03T13:00:30.566Z,23.80
2018-06-03T13:03:06.136Z,24.00
2018-06-03T13:06:01.946Z,23.80
2018-06-03T13:14:31.971Z,23.80
2018-06-03T13:17:01.139Z,23.90
2018-06-03T13:28:30.990Z,24.10
2018-06-03T13:31:06.385Z,24.00
2018-06-03T13:34:02.381Z,24.10
2018-06-03T13:40:02.297Z,24.20
2018-06-03T13:42:31.518Z,24.20
2018-06-03T13:45:00.749Z,24.20
2018-06-03T13:47:29.973Z,24.30
2018-06-03T13:49:59.125Z,24.20
2018-06-03T13:52:28.286Z,24.30
2018-06-03T13:54:57.530Z,24.20
2018-06-03T14:00:26.667Z,24.30
2018-06-03T14:02:55.911Z,24.60
2018-06-03T14:06:04.654Z,24.40
2018-06-03T14:08:33.880Z,24.40
2018-06-03T14:16:29.414Z,24.60
2018-06-03T14:19:04.518Z,24.60
2018-06-03T14:21:33.695Z,25.10
2018-06-03T14:24:02.919Z,25.70
2018-06-03T14:26:32.194Z,25.90
2018-06-03T14:29:05.247Z,25.90
2018-06-03T14:31:34.418Z,26.00
2018-06-03T14:34:05.081Z,26.30
2018-06-03T14:36:34.302Z,26.40
2018-06-03T14:39:03.953Z,26.30
2018-06-03T14:41:33.181Z,26.20
2018-06-03T14:44:02.393Z,26.30
2018-06-03T14:47:19.374Z,26.10
2018-06-03T14:50:03.369Z,25.90
2018-06-03T14:52:32.583Z,25.50
2018-06-03T14:55:01.774Z,25.40
2018-06-03T14:57:31.065Z,25.90
2018-06-03T15:00:00.170Z,25.90
2018-06-03T15:05:29.479Z,26.30
2018-06-03T15:07:58.663Z,26.50
2018-06-03T15:10:27.857Z,26.40
2018-06-03T15:12:57.070Z,26.40
2018-06-03T15:15:26.242Z,26.60
2018-06-03T15:18:05.514Z,26.80
2018-06-03T15:20:34.726Z,26.90
2018-06-03T15:23:03.906Z,27.10
2018-06-03T15:25:33.090Z,27.10
2018-06-03T15:28:02.331Z,27.10
2018-06-03T15:33:32.224Z,26.60
2018-06-03T15:36:01.523Z,27.40
2018-06-03T15:38:30.740Z,27.50
2018-06-03T15:40:59.914Z,27.40
2018-06-03T15:43:29.161Z,27.30
2018-06-03T15:45:58.334Z,27.50
2018-06-03T15:48:27.560Z,27.50
2018-06-03T15:50:56.729Z,27.40
2018-06-03T15:53:25.891Z,27.50
2018-06-03T15:56:05.490Z,27.50
2018-06-03T15:59:03.443Z,27.60
2018-06-03T16:01:32.737Z,27.60
2018-06-03T16:04:01.918Z,27.90
2018-06-03T16:06:34.064Z,28.00
2018-06-03T16:09:04.055Z,28.10
2018-06-03T16:11:33.239Z,28.00
2018-06-03T16:14:02.439Z,28.00
2018-06-03T16:16:31.655Z,27.60
2018-06-03T16:19:00.833Z,27.70
2018-06-03T16:21:30.013Z,27.80
2018-06-03T16:24:04.791Z,27.70
2018-06-03T16:26:33.960Z,27.80
2018-06-03T16:29:06.271Z,27.30
2018-06-03T16:34:04.725Z,27.80
2018-06-03T16:36:33.911Z,27.90
2018-06-03T16:39:03.118Z,27.90
2018-06-03T16:44:29.601Z,28.00
2018-06-03T16:46:58.824Z,28.00
2018-06-03T16:49:28.038Z,28.00
2018-06-03T16:52:04.035Z,27.90
2018-06-03T16:55:02.316Z,27.90
2018-06-03T16:57:31.482Z,27.70
2018-06-03T17:00:00.664Z,27.80
2018-06-03T17:02:29.972Z,27.90
2018-06-03T17:09:57.794Z,27.90
2018-06-03T17:12:27.795Z,27.90
2018-06-03T17:14:57.040Z,27.50
2018-06-03T17:17:26.286Z,27.20
2018-06-03T17:20:03.954Z,26.90
2018-06-03T17:22:33.139Z,26.60
2018-06-03T17:25:02.458Z,26.50
2018-06-03T17:27:31.697Z,25.70
2018-06-03T17:30:00.850Z,25.70
2018-06-03T17:32:30.091Z,25.40
2018-06-03T17:35:04.848Z,25.80
2018-06-03T17:37:34.099Z,25.50
2018-06-03T17:40:03.358Z,25.10
2018-06-03T17:42:32.679Z,25.70
2018-06-03T17:45:02.114Z,25.80
2018-06-03T17:47:32.270Z,26.20
2018-06-03T17:50:01.496Z,26.40
2018-06-03T17:52:30.797Z,26.00
2018-06-03T17:55:00.035Z,25.40
2018-06-03T17:57:29.286Z,25.90
2018-06-03T17:59:58.474Z,25.00
2018-06-03T18:02:27.710Z,25.50
2018-06-03T18:05:04.439Z,25.60
2018-06-03T18:07:33.928Z,25.90
2018-06-03T18:10:03.099Z,25.80
2018-06-03T18:12:32.594Z,26.00
2018-06-03T18:15:02.006Z,25.90
2018-06-03T18:17:31.172Z,25.00
2018-06-03T18:20:00.391Z,25.50
2018-06-03T18:25:29.732Z,25.50
2018-06-03T18:27:58.928Z,24.90
2018-06-03T18:33:28.074Z,25.40
2018-06-03T18:35:57.250Z,25.40
2018-06-03T18:38:26.626Z,25.60
2018-06-03T18:40:55.898Z,25.60
2018-06-03T18:43:25.123Z,25.60
2018-06-03T18:46:04.839Z,25.70
2018-06-03T18:48:34.027Z,25.60
2018-06-03T18:51:03.208Z,25.60
2018-06-03T18:53:32.448Z,25.50
2018-06-03T18:56:01.655Z,25.50
2018-06-03T19:01:31.442Z,25.50
2018-06-03T19:04:00.648Z,25.40
2018-06-03T19:06:29.838Z,25.40
2018-06-03T19:08:59.057Z,25.40
2018-06-03T19:11:28.561Z,25.40
2018-06-03T19:15:08.057Z,25.30
2018-06-03T19:17:37.380Z,25.30
2018-06-03T19:20:07.580Z,25.20
2018-06-03T19:25:06.255Z,25.20
2018-06-03T19:27:47.926Z,25.10
2018-06-03T19:30:17.210Z,25.10
2018-06-03T19:32:46.440Z,25.10
2018-06-03T19:35:15.653Z,24.50
2018-06-03T19:37:44.847Z,24.60
2018-06-03T19:40:14.227Z,24.80
2018-06-03T19:42:43.443Z,24.70
2018-06-03T19:45:12.702Z,24.80
2018-06-03T19:47:42.937Z,24.50
2018-06-03T19:50:12.150Z,24.30
2018-06-03T19:52:41.331Z,24.30
2018-06-03T19:55:10.548Z,24.20
2018-06-03T19:57:39.714Z,24.40
2018-06-03T20:00:08.887Z,24.40
2018-06-03T20:02:38.189Z,24.40
2018-06-03T20:05:07.393Z,24.40
2018-06-03T20:07:36.598Z,24.40
2018-06-03T20:10:06.849Z,24.30
2018-06-03T20:12:36.966Z,24.30
2018-06-03T20:15:06.196Z,24.30
2018-06-03T20:17:35.456Z,24.30
2018-06-03T20:20:06.049Z,24.20
2018-06-03T20:22:35.781Z,24.20
2018-06-03T20:25:05.025Z,24.10
2018-06-03T20:27:34.194Z,24.10
2018-06-03T20:30:03.418Z,23.90
2018-06-03T20:32:32.582Z,23.90
2018-06-03T20:35:01.766Z,23.10
2018-06-03T20:40:31.016Z,23.40
2018-06-03T20:43:00.195Z,23.40
2018-06-03T20:45:29.542Z,23.50
2018-06-03T20:47:58.727Z,23.60
2018-06-03T20:50:28.145Z,23.60
2018-06-03T20:52:57.319Z,23.60
2018-06-03T20:55:26.506Z,23.30
2018-06-03T20:57:55.702Z,23.40
2018-06-03T21:00:24.953Z,23.20
2018-06-03T21:02:54.134Z,23.30
2018-06-03T21:08:23.193Z,23.10
2018-06-03T21:10:52.435Z,23.00
2018-06-03T21:13:21.609Z,23.10
2018-06-03T21:15:50.923Z,22.90
2018-06-03T21:18:20.179Z,22.60
2018-06-03T21:21:03.405Z,22.90
2018-06-03T21:23:32.591Z,22.70
2018-06-03T21:26:01.889Z,22.90
2018-06-03T21:28:31.062Z,22.70
2018-06-03T21:31:00.407Z,22.50
2018-06-03T21:35:05.694Z,22.80
2018-06-03T21:37:34.863Z,22.70
2018-06-03T21:40:04.067Z,22.60
2018-06-03T21:42:33.495Z,22.50
2018-06-03T21:45:02.660Z,22.20
2018-06-03T21:50:32.034Z,22.50
2018-06-03T21:53:01.189Z,22.50
2018-06-03T21:55:30.439Z,22.60
2018-06-03T21:57:59.604Z,22.60
2018-06-03T22:00:28.854Z,22.70
2018-06-03T22:03:04.709Z,22.60
2018-06-03T22:05:33.959Z,22.60
2018-06-03T22:08:03.132Z,22.60
2018-06-03T22:10:32.379Z,22.60
2018-06-03T22:13:01.539Z,22.60
2018-06-03T22:18:30.963Z,22.30
2018-06-03T22:21:00.147Z,21.90
2018-06-03T22:23:29.365Z,22.10
2018-06-03T22:25:58.634Z,22.20
2018-06-03T22:28:27.855Z,22.20
2018-06-03T22:31:04.598Z,22.20
2018-06-03T22:33:33.793Z,22.10
2018-06-03T22:36:02.967Z,22.10
2018-06-03T22:38:32.161Z,22.20
2018-06-03T22:41:01.318Z,22.20
2018-06-03T22:45:59.637Z,22.00
2018-06-03T22:48:28.968Z,21.90
2018-06-03T22:50:58.267Z,21.40
2018-06-03T22:53:27.469Z,21.00
2018-06-03T22:55:56.867Z,20.90
2018-06-03T23:01:26.497Z,20.70
2018-06-03T23:03:55.676Z,20.60
2018-06-03T23:06:24.997Z,20.80
2018-06-03T23:08:54.211Z,21.00
2018-06-03T23:14:24.148Z,21.30
2018-06-03T23:16:53.436Z,20.80
2018-06-03T23:19:22.613Z,21.40
2018-06-03T23:22:04.554Z,21.30
2018-06-03T23:24:33.734Z,21.40
2018-06-03T23:27:02.966Z,21.30
2018-06-03T23:29:32.125Z,21.20
2018-06-03T23:32:01.307Z,21.20
2018-06-03T23:34:30.557Z,21.10
2018-06-03T23:37:05.961Z,20.70
2018-06-03T23:39:35.162Z,20.80
2018-06-03T23:42:04.412Z,20.60
2018-06-03T23:44:33.682Z,21.00
2018-06-03T23:47:06.208Z,21.20
2018-06-03T23:49:35.415Z,21.20
2018-06-03T23:52:05.975Z,21.20
2018-06-03T23:54:35.214Z,21.20
2018-06-03T23:57:04.440Z,21.20
2018-06-03T23:59:33.641Z,21.00
